Terminal Aerodrome Forecast
Issued by NWS Birmingham, AL

Home | Current Version | Previous Version | Text Only | Print | Product List | Glossary On
Versions: 1 2 3 4 5 6 7 8 9 10 11 12
000
FTUS44 KBMX 200539
TAFBHM
TAF
KBHM 200539Z 2006/2106 00000KT P6SM OVC040
     FM201500 19005KT P6SM BKN050
     FM210000 15004KT P6SM SCT035=

USA.gov is the U.S. government's official web portal to all federal, state and local government web resources and services.